Time;durP1;ratioP1;P1;durP2;ratioP2;P2;SDS_P1;SDS_P2;PMS_P1;PMS_P2;Temp;Humidity;BMP_temperature;BMP_pressure;BME280_temperature;BME280_humidity;BME280_pressure;Samples;Min_cycle;Max_cycle;Signal;HPM_P1;HPM_P2
2023/07/26 00:00:19;;;;;;;4.90;2.17;;;;;;;;;;5012295;28;20026;-75
2023/07/26 00:02:45;;;;;;;2.38;1.60;;;;;;;;;;5014123;28;20061;-75
2023/07/26 00:05:11;;;;;;;1.85;1.10;;;;;;;;;;5014636;28;20026;-75
2023/07/26 00:07:37;;;;;;;2.55;1.38;;;;;;;;;;5027982;28;20028;-75
2023/07/26 00:10:03;;;;;;;3.15;1.60;;;;;;;;;;5026725;28;20389;-75
2023/07/26 00:12:29;;;;;;;1.60;1.30;;;;;;;;;;5014287;28;20084;-75
2023/07/26 00:14:55;;;;;;;1.98;1.30;;;;;;;;;;5014161;28;20416;-75
2023/07/26 00:17:21;;;;;;;1.48;1.20;;;;;;;;;;5014272;28;20022;-75
2023/07/26 00:19:47;;;;;;;5.50;1.65;;;;;;;;;;5014049;28;20029;-75
2023/07/26 00:22:13;;;;;;;2.53;1.20;;;;;;;;;;5013983;28;20041;-75
2023/07/26 00:24:45;;;;;;;2.75;1.48;;;;;;;;;;5014395;28;20121;-75
2023/07/26 00:27:14;;;;;;;3.88;2.00;;;;;;;;;;5014061;28;20113;-75
2023/07/26 00:29:40;;;;;;;4.47;1.60;;;;;;;;;;5013104;28;20523;-75
2023/07/26 00:32:06;;;;;;;2.08;1.30;;;;;;;;;;5013842;28;20034;-75
2023/07/26 00:34:32;;;;;;;1.95;1.40;;;;;;;;;;5014246;28;20030;-75
2023/07/26 00:37:00;;;;;;;1.95;1.40;;;;;;;;;;5013720;28;20283;-75
2023/07/26 00:39:26;;;;;;;4.05;1.63;;;;;;;;;;5014350;28;20022;-75
2023/07/26 00:41:52;;;;;;;3.45;1.45;;;;;;;;;;5013870;28;20029;-75
2023/07/26 00:44:18;;;;;;;3.20;1.30;;;;;;;;;;5022897;28;20078;-75
2023/07/26 00:46:44;;;;;;;4.00;1.80;;;;;;;;;;5033564;28;20029;-75
2023/07/26 00:49:10;;;;;;;1.85;1.38;;;;;;;;;;5033631;28;20037;-75
2023/07/26 00:51:38;;;;;;;2.78;1.17;;;;;;;;;;5030564;28;21539;-75
2023/07/26 00:54:05;;;;;;;2.15;1.30;;;;;;;;;;5013867;28;20022;-75
2023/07/26 00:56:31;;;;;;;4.53;1.30;;;;;;;;;;5013605;28;20103;-75
2023/07/26 00:58:57;;;;;;;2.80;1.20;;;;;;;;;;5013316;28;20068;-75
2023/07/26 01:01:23;;;;;;;3.13;1.30;;;;;;;;;;5013425;28;20041;-75
2023/07/26 01:03:49;;;;;;;2.72;1.00;;;;;;;;;;5013619;28;20030;-75
2023/07/26 01:06:27;;;;;;;3.20;1.20;;;;;;;;;;5013087;28;20026;-75
2023/07/26 01:09:05;;;;;;;1.63;1.05;;;;;;;;;;5024241;28;20021;-75
2023/07/26 01:11:35;;;;;;;4.38;1.60;;;;;;;;;;5033301;28;20040;-75
2023/07/26 01:14:18;;;;;;;3.00;1.08;;;;;;;;;;5032071;28;20029;-75
2023/07/26 01:16:45;;;;;;;1.42;1.15;;;;;;;;;;5032681;28;20473;-75
2023/07/26 01:19:11;;;;;;;2.40;1.08;;;;;;;;;;5033006;28;20045;-75
2023/07/26 01:21:37;;;;;;;1.38;1.02;;;;;;;;;;5032517;28;20064;-75
2023/07/26 01:24:03;;;;;;;1.88;1.20;;;;;;;;;;5032826;28;20103;-75
2023/07/26 01:26:29;;;;;;;3.90;1.80;;;;;;;;;;5032569;28;20022;-75
2023/07/26 01:28:55;;;;;;;3.03;1.27;;;;;;;;;;5032767;28;20533;-75
2023/07/26 01:31:23;;;;;;;5.32;1.65;;;;;;;;;;5033039;28;20033;-75
2023/07/26 01:33:52;;;;;;;2.17;1.10;;;;;;;;;;5032533;28;20662;-75
2023/07/26 01:36:20;;;;;;;4.15;1.63;;;;;;;;;;5032876;28;20025;-75
2023/07/26 01:38:47;;;;;;;1.70;1.15;;;;;;;;;;5028291;28;20026;-75
2023/07/26 01:41:14;;;;;;;4.78;1.35;;;;;;;;;;5012457;28;20424;-75
2023/07/26 01:43:40;;;;;;;3.22;1.50;;;;;;;;;;5012600;28;20034;-75
2023/07/26 01:46:07;;;;;;;3.35;1.55;;;;;;;;;;5026833;28;20033;-75
2023/07/26 01:48:32;;;;;;;3.60;1.33;;;;;;;;;;5014914;28;20026;-75
2023/07/26 01:50:58;;;;;;;3.95;1.60;;;;;;;;;;5032071;28;20039;-75
2023/07/26 01:53:24;;;;;;;3.28;1.50;;;;;;;;;;5023921;28;20495;-75
2023/07/26 01:55:50;;;;;;;4.03;1.58;;;;;;;;;;5032112;28;20033;-75
2023/07/26 01:58:16;;;;;;;3.30;1.60;;;;;;;;;;5031978;28;20045;-75
2023/07/26 02:00:42;;;;;;;2.10;1.60;;;;;;;;;;5018860;28;20037;-75
2023/07/26 02:03:08;;;;;;;3.60;1.50;;;;;;;;;;5012106;28;20433;-75
2023/07/26 02:05:34;;;;;;;7.68;2.20;;;;;;;;;;5012059;28;20033;-75
2023/07/26 02:08:00;;;;;;;3.35;1.55;;;;;;;;;;5012160;28;20461;-75
2023/07/26 02:10:26;;;;;;;5.18;1.52;;;;;;;;;;5012356;28;20030;-75
2023/07/26 02:12:53;;;;;;;7.32;1.90;;;;;;;;;;5012201;28;20053;-75
2023/07/26 02:15:20;;;;;;;10.95;2.40;;;;;;;;;;5012241;28;20489;-74
2023/07/26 02:17:46;;;;;;;14.88;3.42;;;;;;;;;;5015805;28;20048;-74
2023/07/26 02:20:12;;;;;;;6.07;2.30;;;;;;;;;;5015948;28;20030;-75
2023/07/26 02:22:38;;;;;;;5.53;1.63;;;;;;;;;;5012554;28;20084;-75
2023/07/26 02:25:04;;;;;;;7.65;1.88;;;;;;;;;;5026156;28;20033;-75
2023/07/26 02:27:38;;;;;;;4.75;2.13;;;;;;;;;;5012738;28;20120;-75
2023/07/26 02:30:05;;;;;;;5.65;2.40;;;;;;;;;;5012002;28;20049;-75
2023/07/26 02:32:31;;;;;;;4.47;1.75;;;;;;;;;;5013181;28;20032;-75
2023/07/26 02:34:57;;;;;;;3.38;1.60;;;;;;;;;;5030020;28;20025;-75
2023/07/26 02:37:23;;;;;;;3.25;1.48;;;;;;;;;;5020895;28;20397;-75
2023/07/26 02:39:49;;;;;;;3.10;1.50;;;;;;;;;;5029143;28;20029;-75
2023/07/26 02:42:15;;;;;;;1.42;0.57;;;;;;;;;;5031982;28;20368;-75
2023/07/26 02:44:41;;;;;;;2.42;0.50;;;;;;;;;;5013738;28;20030;-75
2023/07/26 02:47:07;;;;;;;2.80;0.98;;;;;;;;;;5012252;28;20105;-75
2023/07/26 02:49:33;;;;;;;1.50;0.45;;;;;;;;;;5012160;28;20484;-75
2023/07/26 02:51:59;;;;;;;1.95;0.45;;;;;;;;;;5012375;28;20057;-75
2023/07/26 02:54:25;;;;;;;1.60;0.30;;;;;;;;;;5012323;28;20461;-75
2023/07/26 02:56:51;;;;;;;2.53;0.40;;;;;;;;;;5012080;28;20026;-75
2023/07/26 02:59:20;;;;;;;2.67;0.57;;;;;;;;;;5011943;28;20022;-75
2023/07/26 03:01:49;;;;;;;2.00;0.90;;;;;;;;;;5012115;28;20412;-75
2023/07/26 03:04:15;;;;;;;2.15;0.55;;;;;;;;;;5016100;28;20171;-75
2023/07/26 03:06:41;;;;;;;2.63;0.60;;;;;;;;;;5031650;28;20108;-75
2023/07/26 03:09:07;;;;;;;3.45;0.80;;;;;;;;;;5031672;28;20072;-75
2023/07/26 03:11:33;;;;;;;2.10;0.55;;;;;;;;;;5031913;28;20451;-75
2023/07/26 03:13:59;;;;;;;5.88;0.80;;;;;;;;;;5031701;28;20037;-74
2023/07/26 03:16:25;;;;;;;4.10;1.00;;;;;;;;;;5032245;28;20346;-75
2023/07/26 03:18:51;;;;;;;2.67;0.90;;;;;;;;;;5031866;28;20033;-75
2023/07/26 03:21:17;;;;;;;2.33;0.80;;;;;;;;;;5032061;28;20029;-75
2023/07/26 03:23:43;;;;;;;3.15;0.82;;;;;;;;;;5031851;28;20494;-75
2023/07/26 03:26:10;;;;;;;5.03;0.90;;;;;;;;;;5031415;28;20052;-75
2023/07/26 03:28:36;;;;;;;1.60;0.75;;;;;;;;;;5013096;28;20360;-75
2023/07/26 03:31:02;;;;;;;4.53;0.98;;;;;;;;;;5011632;28;20393;-75
2023/07/26 03:33:27;;;;;;;3.25;1.10;;;;;;;;;;5013720;28;20029;-75
2023/07/26 03:35:54;;;;;;;3.67;0.90;;;;;;;;;;5023041;28;20025;-75
2023/07/26 03:38:20;;;;;;;4.22;1.17;;;;;;;;;;5035589;28;20100;-75
2023/07/26 03:40:46;;;;;;;1.60;0.80;;;;;;;;;;5035197;28;20100;-75
2023/07/26 03:43:12;;;;;;;2.75;1.20;;;;;;;;;;5035321;28;20030;-75
2023/07/26 03:45:38;;;;;;;2.35;1.20;;;;;;;;;;5035563;28;20029;-75
2023/07/26 03:48:04;;;;;;;3.58;1.02;;;;;;;;;;5036376;28;20022;-75
2023/07/26 03:50:30;;;;;;;3.53;1.00;;;;;;;;;;5035947;28;20049;-75
2023/07/26 03:52:56;;;;;;;2.78;1.30;;;;;;;;;;5035496;28;20022;-75
2023/07/26 03:55:22;;;;;;;1.77;1.20;;;;;;;;;;5035206;28;20452;-75
2023/07/26 03:57:48;;;;;;;3.70;1.33;;;;;;;;;;5035242;28;20021;-75
2023/07/26 04:00:14;;;;;;;3.15;1.63;;;;;;;;;;5035818;28;20378;-74
2023/07/26 04:02:41;;;;;;;3.67;1.33;;;;;;;;;;5035716;28;20041;-75
2023/07/26 04:05:07;;;;;;;3.90;1.50;;;;;;;;;;5024260;28;20029;-76
2023/07/26 04:07:36;;;;;;;4.22;1.35;;;;;;;;;;5014918;28;20105;-76
2023/07/26 04:10:02;;;;;;;8.30;1.50;;;;;;;;;;5015834;28;20018;-76
2023/07/26 04:12:28;;;;;;;3.10;1.38;;;;;;;;;;5015761;28;20209;-76
2023/07/26 04:14:54;;;;;;;3.90;1.40;;;;;;;;;;5028243;28;20048;-76
2023/07/26 04:17:20;;;;;;;4.47;1.40;;;;;;;;;;5035826;28;20030;-74
2023/07/26 04:19:46;;;;;;;2.97;1.27;;;;;;;;;;5023238;28;20030;-74
2023/07/26 04:22:12;;;;;;;4.00;1.45;;;;;;;;;;5035194;28;20030;-74
2023/07/26 04:24:45;;;;;;;1.55;1.10;;;;;;;;;;5022197;28;20049;-74
2023/07/26 04:27:12;;;;;;;3.63;1.67;;;;;;;;;;5014563;28;20046;-74
2023/07/26 04:29:38;;;;;;;3.28;1.55;;;;;;;;;;5014358;28;20085;-74
2023/07/26 04:32:04;;;;;;;2.47;1.25;;;;;;;;;;5021579;28;20092;-74
2023/07/26 04:34:30;;;;;;;3.03;1.30;;;;;;;;;;5034090;28;20636;-74
2023/07/26 04:36:56;;;;;;;2.10;1.30;;;;;;;;;;5033979;28;20052;-74
2023/07/26 04:39:22;;;;;;;4.32;1.52;;;;;;;;;;5033876;28;20026;-74
2023/07/26 04:41:48;;;;;;;3.70;1.50;;;;;;;;;;5034955;28;20037;-74
2023/07/26 04:44:14;;;;;;;4.40;1.38;;;;;;;;;;5035616;28;20018;-74
2023/07/26 04:46:40;;;;;;;3.65;1.65;;;;;;;;;;5032471;28;20545;-74
2023/07/26 04:49:06;;;;;;;2.70;1.17;;;;;;;;;;5015035;28;20026;-74
2023/07/26 04:51:32;;;;;;;4.95;1.42;;;;;;;;;;5016219;28;20542;-74
2023/07/26 04:53:59;;;;;;;4.72;1.58;;;;;;;;;;5002521;28;20030;-74
2023/07/26 04:56:26;;;;;;;4.60;1.27;;;;;;;;;;4995530;28;20072;-74
2023/07/26 04:58:52;;;;;;;4.05;1.70;;;;;;;;;;5002880;28;20100;-75
2023/07/26 05:01:19;;;;;;;2.42;1.65;;;;;;;;;;4996701;28;20058;-75
2023/07/26 05:03:45;;;;;;;3.00;1.80;;;;;;;;;;5013457;28;20018;-75
2023/07/26 05:06:11;;;;;;;5.07;1.98;;;;;;;;;;5015433;28;20030;-75
2023/07/26 05:08:38;;;;;;;4.30;1.80;;;;;;;;;;5015119;28;20032;-75
2023/07/26 05:11:05;;;;;;;5.70;1.95;;;;;;;;;;5015612;28;20350;-75
2023/07/26 05:13:31;;;;;;;4.38;1.95;;;;;;;;;;5015464;28;20021;-75
2023/07/26 05:15:57;;;;;;;3.75;1.70;;;;;;;;;;5015193;28;20030;-75
2023/07/26 05:18:23;;;;;;;4.72;1.95;;;;;;;;;;5014505;28;20109;-75
2023/07/26 05:20:53;;;;;;;4.55;2.20;;;;;;;;;;5015227;28;20489;-75
2023/07/26 05:23:19;;;;;;;3.67;2.20;;;;;;;;;;5015127;28;20461;-74
2023/07/26 05:25:45;;;;;;;3.28;1.80;;;;;;;;;;5013150;28;20096;-75
2023/07/26 05:28:11;;;;;;;5.60;2.67;;;;;;;;;;5013116;28;20034;-75
2023/07/26 05:30:38;;;;;;;3.47;2.17;;;;;;;;;;5012501;28;20054;-75
2023/07/26 05:33:04;;;;;;;3.53;1.67;;;;;;;;;;5012191;28;20061;-75
2023/07/26 05:35:30;;;;;;;7.03;2.47;;;;;;;;;;4994230;28;20023;-75
2023/07/26 05:37:56;;;;;;;5.78;2.03;;;;;;;;;;4995284;28;20083;-75
2023/07/26 05:40:22;;;;;;;5.25;2.10;;;;;;;;;;5014167;28;20079;-75
2023/07/26 05:42:48;;;;;;;4.20;2.15;;;;;;;;;;5013264;28;20026;-75
2023/07/26 05:45:14;;;;;;;4.65;2.75;;;;;;;;;;5014177;28;20037;-75
2023/07/26 05:47:41;;;;;;;4.78;2.20;;;;;;;;;;5014074;28;20034;-75
2023/07/26 05:50:10;;;;;;;5.95;2.47;;;;;;;;;;5014664;28;20086;-75
2023/07/26 05:52:36;;;;;;;5.18;2.88;;;;;;;;;;5009886;28;20062;-75
2023/07/26 05:55:02;;;;;;;3.97;2.60;;;;;;;;;;4994417;28;20081;-75
2023/07/26 05:57:28;;;;;;;5.85;2.38;;;;;;;;;;4994676;28;20557;-75
2023/07/26 05:59:54;;;;;;;6.32;2.13;;;;;;;;;;4994059;28;20049;-75
2023/07/26 06:02:20;;;;;;;5.18;2.60;;;;;;;;;;4994778;28;20113;-75
2023/07/26 06:04:47;;;;;;;5.05;2.72;;;;;;;;;;4993970;28;20109;-75
2023/07/26 06:07:13;;;;;;;8.63;2.53;;;;;;;;;;4994196;28;20026;-75
2023/07/26 06:09:39;;;;;;;2.75;2.05;;;;;;;;;;4994148;28;20457;-75
2023/07/26 06:12:05;;;;;;;3.83;2.13;;;;;;;;;;4994034;28;20034;-75
2023/07/26 06:14:31;;;;;;;3.47;1.73;;;;;;;;;;4994228;28;20031;-75
2023/07/26 06:16:57;;;;;;;4.78;2.10;;;;;;;;;;5024319;28;20579;-75
2023/07/26 06:19:23;;;;;;;3.35;1.67;;;;;;;;;;5013842;28;20461;-75
2023/07/26 06:21:49;;;;;;;4.25;2.17;;;;;;;;;;5013655;28;20041;-75
2023/07/26 06:24:15;;;;;;;3.20;1.92;;;;;;;;;;5014190;28;20033;-75
2023/07/26 06:26:41;;;;;;;5.03;2.10;;;;;;;;;;5012479;28;20013;-75
2023/07/26 06:29:08;;;;;;;2.90;2.03;;;;;;;;;;5026058;28;20144;-76
2023/07/26 06:31:34;;;;;;;5.82;1.92;;;;;;;;;;5030611;28;20040;-75
2023/07/26 06:34:00;;;;;;;3.92;2.03;;;;;;;;;;5027273;28;20403;-75
2023/07/26 06:36:26;;;;;;;4.13;2.10;;;;;;;;;;5012364;28;20033;-75
2023/07/26 06:38:52;;;;;;;4.80;2.20;;;;;;;;;;5013144;28;20350;-75
2023/07/26 06:41:18;;;;;;;3.50;1.77;;;;;;;;;;5013025;28;20104;-75
2023/07/26 06:43:44;;;;;;;3.85;1.88;;;;;;;;;;5023576;28;20100;-75
2023/07/26 06:46:10;;;;;;;2.33;1.52;;;;;;;;;;5033693;28;20032;-75
2023/07/26 06:48:35;;;;;;;2.47;1.60;;;;;;;;;;5022474;28;20076;-75
2023/07/26 06:51:04;;;;;;;2.97;1.70;;;;;;;;;;5030679;28;20564;-75
2023/07/26 06:53:30;;;;;;;5.00;2.00;;;;;;;;;;5032858;28;20073;-75
2023/07/26 06:56:00;;;;;;;3.88;1.75;;;;;;;;;;5028089;28;20038;-75
2023/07/26 06:58:26;;;;;;;1.95;1.70;;;;;;;;;;5013835;28;20018;-75
2023/07/26 07:00:59;;;;;;;3.08;1.75;;;;;;;;;;5031385;28;20025;-75
2023/07/26 07:03:25;;;;;;;2.78;2.35;;;;;;;;;;5031226;28;20417;-75
2023/07/26 07:05:51;;;;;;;2.38;1.80;;;;;;;;;;5027522;28;20052;-75
2023/07/26 07:08:17;;;;;;;3.35;2.42;;;;;;;;;;5022270;28;20033;-75
2023/07/26 07:10:43;;;;;;;4.00;2.30;;;;;;;;;;5011304;28;20030;-75
2023/07/26 07:13:09;;;;;;;4.10;2.17;;;;;;;;;;5015331;28;20030;-75
2023/07/26 07:15:35;;;;;;;2.35;1.45;;;;;;;;;;5018286;28;21507;-75
2023/07/26 07:18:01;;;;;;;3.50;1.73;;;;;;;;;;5035035;28;20029;-75
2023/07/26 07:20:27;;;;;;;3.00;1.70;;;;;;;;;;5035080;28;20036;-75
2023/07/26 07:22:53;;;;;;;3.38;1.75;;;;;;;;;;5035162;28;20100;-75
2023/07/26 07:25:19;;;;;;;4.10;2.15;;;;;;;;;;5035042;28;20032;-75
2023/07/26 07:27:45;;;;;;;2.80;1.90;;;;;;;;;;5022280;28;20033;-76
2023/07/26 07:30:13;;;;;;;3.30;2.33;;;;;;;;;;4995804;28;20054;-76
2023/07/26 07:32:39;;;;;;;3.80;1.90;;;;;;;;;;5008632;28;20022;-75
2023/07/26 07:35:05;;;;;;;5.20;2.08;;;;;;;;;;5014975;28;20026;-75
2023/07/26 07:37:31;;;;;;;2.08;1.63;;;;;;;;;;5015289;28;20018;-75
2023/07/26 07:39:57;;;;;;;4.63;1.80;;;;;;;;;;5015020;28;20025;-75
2023/07/26 07:42:23;;;;;;;2.90;2.00;;;;;;;;;;5013769;28;20034;-76
2023/07/26 07:44:49;;;;;;;4.03;2.17;;;;;;;;;;5015409;28;20026;-76
2023/07/26 07:47:16;;;;;;;6.95;2.40;;;;;;;;;;5014643;28;20053;-76
2023/07/26 07:49:42;;;;;;;6.78;1.85;;;;;;;;;;5014643;28;20030;-76
2023/07/26 07:52:08;;;;;;;4.65;2.85;;;;;;;;;;5014761;28;20038;-76
2023/07/26 07:54:34;;;;;;;3.95;2.15;;;;;;;;;;5013151;28;20064;-76
2023/07/26 07:57:00;;;;;;;2.63;1.77;;;;;;;;;;5014681;28;20065;-76
2023/07/26 07:59:26;;;;;;;2.85;2.17;;;;;;;;;;5014511;28;20029;-76
2023/07/26 08:01:52;;;;;;;2.90;1.63;;;;;;;;;;5014459;28;20030;-76
2023/07/26 08:04:18;;;;;;;2.97;1.58;;;;;;;;;;5022175;28;20017;-76
2023/07/26 08:06:44;;;;;;;3.38;1.42;;;;;;;;;;5034568;28;20028;-76
2023/07/26 08:09:10;;;;;;;3.83;1.80;;;;;;;;;;5034053;28;20100;-76
2023/07/26 08:11:36;;;;;;;3.50;2.05;;;;;;;;;;5034136;28;20033;-76
2023/07/26 08:14:03;;;;;;;2.35;1.60;;;;;;;;;;5034207;28;20025;-76
2023/07/26 08:16:29;;;;;;;1.92;1.42;;;;;;;;;;5034270;28;20095;-76
2023/07/26 08:18:55;;;;;;;2.05;1.30;;;;;;;;;;5034082;28;20578;-76
2023/07/26 08:21:21;;;;;;;2.75;1.60;;;;;;;;;;5034067;28;20549;-76
2023/07/26 08:23:47;;;;;;;3.42;1.40;;;;;;;;;;5033672;28;20029;-76
2023/07/26 08:26:13;;;;;;;2.95;1.63;;;;;;;;;;5033767;28;20021;-76
2023/07/26 08:28:39;;;;;;;2.83;1.70;;;;;;;;;;5014094;28;20376;-76
2023/07/26 08:31:05;;;;;;;3.67;1.60;;;;;;;;;;5013437;28;20133;-76
2023/07/26 08:33:31;;;;;;;3.15;1.80;;;;;;;;;;5014325;28;20053;-76
2023/07/26 08:35:57;;;;;;;5.05;2.88;;;;;;;;;;5014194;28;20029;-76
2023/07/26 08:38:23;;;;;;;4.55;2.40;;;;;;;;;;5013713;28;20022;-76
2023/07/26 08:40:50;;;;;;;7.22;2.72;;;;;;;;;;5014142;28;20029;-76
2023/07/26 08:43:18;;;;;;;17.42;3.65;;;;;;;;;;5013850;28;20033;-76
2023/07/26 08:45:44;;;;;;;8.38;4.15;;;;;;;;;;5014004;28;20057;-76
2023/07/26 08:48:11;;;;;;;8.55;3.35;;;;;;;;;;5013790;28;20486;-76
2023/07/26 08:50:39;;;;;;;6.63;2.30;;;;;;;;;;5013555;28;20096;-76
2023/07/26 08:53:05;;;;;;;6.50;2.20;;;;;;;;;;5013976;28;20026;-76
2023/07/26 08:55:32;;;;;;;4.30;2.20;;;;;;;;;;5015077;28;20526;-76
2023/07/26 08:57:59;;;;;;;6.88;3.17;;;;;;;;;;5033449;28;20032;-76
2023/07/26 09:00:26;;;;;;;5.68;2.92;;;;;;;;;;5018556;28;20133;-76
2023/07/26 09:02:54;;;;;;;5.80;2.17;;;;;;;;;;5013466;28;20022;-76
2023/07/26 09:05:20;;;;;;;3.75;1.73;;;;;;;;;;5015649;28;20037;-76
2023/07/26 09:07:46;;;;;;;4.47;1.73;;;;;;;;;;5033071;28;20026;-76
2023/07/26 09:10:12;;;;;;;6.93;1.75;;;;;;;;;;5018049;28;20103;-76
2023/07/26 09:12:38;;;;;;;3.63;1.77;;;;;;;;;;5012981;28;20112;-76
2023/07/26 09:15:05;;;;;;;2.22;1.55;;;;;;;;;;5028909;28;20364;-76
2023/07/26 09:17:49;;;;;;;3.55;1.77;;;;;;;;;;5032890;28;20033;-76
2023/07/26 09:20:22;;;;;;;1.80;1.50;;;;;;;;;;5014745;28;20133;-74
2023/07/26 09:22:58;;;;;;;2.60;1.58;;;;;;;;;;5013213;28;20049;-74
2023/07/26 09:25:50;;;;;;;3.05;2.00;;;;;;;;;;5013431;28;20053;-74
2023/07/26 09:28:16;;;;;;;6.57;1.90;;;;;;;;;;5010132;28;20038;-74
2023/07/26 09:30:45;;;;;;;1.98;1.50;;;;;;;;;;5011527;28;20464;-74
2023/07/26 09:33:12;;;;;;;2.67;1.83;;;;;;;;;;5016875;28;20097;-74
2023/07/26 09:35:43;;;;;;;1.73;1.13;;;;;;;;;;5021025;28;20022;-74
2023/07/26 09:38:09;;;;;;;17.05;2.03;;;;;;;;;;5026275;28;20041;-74
2023/07/26 09:40:35;;;;;;;11.23;1.80;;;;;;;;;;5012686;28;20022;-74
2023/07/26 09:43:01;;;;;;;1.58;1.17;;;;;;;;;;5012661;28;20053;-74
2023/07/26 09:45:28;;;;;;;2.05;1.30;;;;;;;;;;5013212;28;20080;-74
2023/07/26 09:48:05;;;;;;;1.42;1.30;;;;;;;;;;5012780;28;20156;-75
2023/07/26 09:50:31;;;;;;;2.80;1.70;;;;;;;;;;5012751;28;20026;-74
2023/07/26 09:52:57;;;;;;;4.82;1.60;;;;;;;;;;5032289;28;20603;-75
2023/07/26 09:55:24;;;;;;;2.22;1.13;;;;;;;;;;5032220;28;20109;-75
2023/07/26 09:57:54;;;;;;;2.80;1.30;;;;;;;;;;5032165;28;20040;-75
2023/07/26 10:00:21;;;;;;;2.35;1.67;;;;;;;;;;5032135;28;20064;-75
2023/07/26 10:02:54;;;;;;;2.30;1.20;;;;;;;;;;5032048;28;20455;-75
2023/07/26 10:05:21;;;;;;;2.90;1.55;;;;;;;;;;5031425;28;20464;-75
2023/07/26 10:07:47;;;;;;;3.92;1.52;;;;;;;;;;5012015;28;20471;-75
2023/07/26 10:10:13;;;;;;;1.80;1.30;;;;;;;;;;5012043;28;20054;-75
2023/07/26 10:12:40;;;;;;;1.92;1.13;;;;;;;;;;5012161;28;20049;-75
2023/07/26 10:15:09;;;;;;;2.83;1.52;;;;;;;;;;5014335;28;20022;-75
2023/07/26 10:17:35;;;;;;;2.53;1.50;;;;;;;;;;5032227;28;20105;-75
2023/07/26 10:20:02;;;;;;;1.92;1.60;;;;;;;;;;5029436;28;20072;-75
2023/07/26 10:22:29;;;;;;;2.08;1.45;;;;;;;;;;5012820;28;20456;-77
2023/07/26 10:24:55;;;;;;;3.28;1.40;;;;;;;;;;5012357;28;20072;-77
2023/07/26 10:27:22;;;;;;;4.43;1.30;;;;;;;;;;5021425;28;20030;-77
2023/07/26 10:29:48;;;;;;;1.67;1.58;;;;;;;;;;5025062;28;20481;-77
2023/07/26 10:32:14;;;;;;;2.55;1.60;;;;;;;;;;5011779;28;20073;-77
2023/07/26 10:34:40;;;;;;;3.78;1.60;;;;;;;;;;5011933;28;20042;-76
2023/07/26 10:37:19;;;;;;;2.63;1.77;;;;;;;;;;5011679;28;20029;-76
2023/07/26 10:39:45;;;;;;;3.25;1.70;;;;;;;;;;5011708;28;20105;-77
2023/07/26 10:42:22;;;;;;;5.82;2.00;;;;;;;;;;5011642;28;20118;-77
2023/07/26 10:44:48;;;;;;;4.70;2.03;;;;;;;;;;5012004;28;20018;-76
2023/07/26 10:47:14;;;;;;;2.13;1.70;;;;;;;;;;5012076;28;20101;-77
2023/07/26 10:49:45;;;;;;;2.60;1.80;;;;;;;;;;5011851;28;20112;-77
2023/07/26 10:52:12;;;;;;;4.00;2.00;;;;;;;;;;5011923;28;20033;-75
2023/07/26 10:54:39;;;;;;;2.78;1.60;;;;;;;;;;5011660;28;20441;-75
2023/07/26 10:57:19;;;;;;;2.85;1.23;;;;;;;;;;5011842;28;20030;-74
2023/07/26 10:59:57;;;;;;;3.50;1.98;;;;;;;;;;5011649;28;20022;-75
2023/07/26 11:02:39;;;;;;;2.15;1.20;;;;;;;;;;5011837;28;20072;-75
2023/07/26 11:05:13;;;;;;;2.03;1.55;;;;;;;;;;5011820;28;20050;-75
2023/07/26 11:07:49;;;;;;;2.58;1.70;;;;;;;;;;5011610;28;20028;-74
2023/07/26 11:10:22;;;;;;;3.85;1.67;;;;;;;;;;5011426;28;20033;-75
2023/07/26 11:13:06;;;;;;;1.95;1.30;;;;;;;;;;5011591;28;20060;-75
2023/07/26 11:15:33;;;;;;;3.58;1.63;;;;;;;;;;5011583;28;20400;-75
2023/07/26 11:17:59;;;;;;;3.72;1.40;;;;;;;;;;5011388;28;20018;-75
2023/07/26 11:20:25;;;;;;;3.35;1.63;;;;;;;;;;5011611;28;20018;-74
2023/07/26 11:22:51;;;;;;;3.83;1.92;;;;;;;;;;5010338;28;20144;-75
2023/07/26 11:25:19;;;;;;;4.35;1.75;;;;;;;;;;5011343;28;20026;-75
2023/07/26 11:27:45;;;;;;;3.05;1.40;;;;;;;;;;5008242;28;20168;-75
2023/07/26 11:30:18;;;;;;;4.30;1.80;;;;;;;;;;4990430;28;20054;-75
2023/07/26 11:32:48;;;;;;;3.38;2.20;;;;;;;;;;4991606;28;20057;-75
2023/07/26 11:35:15;;;;;;;3.38;2.63;;;;;;;;;;4991683;28;20022;-75
2023/07/26 11:37:51;;;;;;;3.42;1.83;;;;;;;;;;5006924;28;20049;-75
2023/07/26 11:40:17;;;;;;;4.82;2.00;;;;;;;;;;5011402;28;20358;-75
2023/07/26 11:42:43;;;;;;;2.67;1.33;;;;;;;;;;5011068;28;20496;-75
2023/07/26 11:45:10;;;;;;;3.20;1.50;;;;;;;;;;5011364;28;20037;-75
2023/07/26 11:47:36;;;;;;;6.25;1.70;;;;;;;;;;5011284;28;20653;-75
2023/07/26 11:50:03;;;;;;;3.80;1.90;;;;;;;;;;5011101;28;20030;-75
2023/07/26 11:52:29;;;;;;;5.30;1.80;;;;;;;;;;5011235;28;20038;-75
2023/07/26 11:54:56;;;;;;;3.15;1.50;;;;;;;;;;5011039;28;20109;-75
2023/07/26 11:57:22;;;;;;;3.80;1.77;;;;;;;;;;5010608;28;20549;-75
2023/07/26 11:59:48;;;;;;;2.72;1.60;;;;;;;;;;5014752;28;20122;-75
2023/07/26 12:02:14;;;;;;;3.50;1.98;;;;;;;;;;5014363;28;20022;-75
2023/07/26 12:04:40;;;;;;;2.17;1.55;;;;;;;;;;5024495;28;20079;-75
2023/07/26 12:07:09;;;;;;;3.50;1.90;;;;;;;;;;5017282;28;20439;-75
2023/07/26 12:09:46;;;;;;;2.17;1.35;;;;;;;;;;5014556;28;20037;-75
2023/07/26 12:12:12;;;;;;;3.65;1.80;;;;;;;;;;5014350;28;20487;-75
2023/07/26 12:14:38;;;;;;;2.63;1.50;;;;;;;;;;5014491;28;20028;-75
2023/07/26 12:17:13;;;;;;;2.03;1.20;;;;;;;;;;5014377;28;20024;-75
2023/07/26 12:19:44;;;;;;;3.58;1.60;;;;;;;;;;5014655;28;20026;-75
2023/07/26 12:22:11;;;;;;;3.92;1.58;;;;;;;;;;5014803;28;20034;-75
2023/07/26 12:25:02;;;;;;;2.58;1.70;;;;;;;;;;5014253;28;20053;-75
2023/07/26 12:27:32;;;;;;;3.15;1.70;;;;;;;;;;5014417;28;20049;-75
2023/07/26 12:29:58;;;;;;;5.60;1.55;;;;;;;;;;5009274;28;20054;-75
2023/07/26 12:32:24;;;;;;;4.95;2.15;;;;;;;;;;4994439;28;20027;-75
2023/07/26 12:34:50;;;;;;;4.32;1.50;;;;;;;;;;4994387;28;20088;-75
2023/07/26 12:37:17;;;;;;;3.55;1.20;;;;;;;;;;5013066;28;20381;-75
2023/07/26 12:39:45;;;;;;;3.55;1.50;;;;;;;;;;5013973;28;20029;-75
2023/07/26 12:42:11;;;;;;;2.38;1.38;;;;;;;;;;5014357;28;20025;-76
2023/07/26 12:44:38;;;;;;;3.97;1.15;;;;;;;;;;5012279;28;20112;-77
2023/07/26 12:47:04;;;;;;;2.60;1.63;;;;;;;;;;5013756;28;20034;-76
2023/07/26 12:49:30;;;;;;;4.20;1.67;;;;;;;;;;5013686;28;20056;-76
2023/07/26 12:51:57;;;;;;;6.35;2.17;;;;;;;;;;5012983;28;20065;-76
2023/07/26 12:54:23;;;;;;;3.88;1.90;;;;;;;;;;5013437;28;20699;-76
2023/07/26 12:56:49;;;;;;;4.05;1.92;;;;;;;;;;5013665;28;20497;-76
2023/07/26 12:59:16;;;;;;;3.00;1.70;;;;;;;;;;5013558;28;20508;-76
2023/07/26 13:01:42;;;;;;;5.28;1.63;;;;;;;;;;5013312;28;20461;-76
2023/07/26 13:04:08;;;;;;;4.47;2.00;;;;;;;;;;5013750;28;20067;-76
2023/07/26 13:06:34;;;;;;;3.75;1.85;;;;;;;;;;5013610;28;20026;-76
2023/07/26 13:09:00;;;;;;;4.38;2.10;;;;;;;;;;5012341;28;20178;-76
2023/07/26 13:11:26;;;;;;;4.05;2.13;;;;;;;;;;5013326;28;20038;-76
2023/07/26 13:13:53;;;;;;;4.32;1.88;;;;;;;;;;5013208;28;20026;-76
2023/07/26 13:16:20;;;;;;;3.13;1.90;;;;;;;;;;5013445;28;20018;-76
2023/07/26 13:18:46;;;;;;;3.00;1.77;;;;;;;;;;5013435;28;20028;-76
2023/07/26 13:21:12;;;;;;;4.25;1.92;;;;;;;;;;5013113;28;20037;-76
2023/07/26 13:23:38;;;;;;;3.38;2.15;;;;;;;;;;5014201;28;20334;-75
2023/07/26 13:26:04;;;;;;;4.55;2.22;;;;;;;;;;5032830;28;20472;-76
2023/07/26 13:28:31;;;;;;;2.75;1.52;;;;;;;;;;5014050;28;20412;-76
2023/07/26 13:30:57;;;;;;;2.25;1.63;;;;;;;;;;5012418;28;20555;-76
2023/07/26 13:33:22;;;;;;;9.45;2.22;;;;;;;;;;5012946;28;20026;-76
2023/07/26 13:35:49;;;;;;;4.60;2.22;;;;;;;;;;5012978;28;20075;-76
2023/07/26 13:38:15;;;;;;;4.53;2.22;;;;;;;;;;5012785;28;20026;-76
2023/07/26 13:40:41;;;;;;;5.13;2.13;;;;;;;;;;5024817;28;20027;-76
2023/07/26 13:43:07;;;;;;;4.13;2.40;;;;;;;;;;5032531;28;20104;-76
2023/07/26 13:45:33;;;;;;;4.05;2.28;;;;;;;;;;5032631;28;20025;-76
2023/07/26 13:47:59;;;;;;;3.10;2.33;;;;;;;;;;5032270;28;20032;-76
2023/07/26 13:50:25;;;;;;;6.38;2.35;;;;;;;;;;5032506;28;20104;-76
2023/07/26 13:52:51;;;;;;;4.00;2.47;;;;;;;;;;5023607;28;20112;-76
2023/07/26 13:55:17;;;;;;;6.32;2.53;;;;;;;;;;5012391;28;20022;-76
2023/07/26 13:57:43;;;;;;;4.03;2.05;;;;;;;;;;5012564;28;20026;-76
2023/07/26 14:00:09;;;;;;;5.07;2.50;;;;;;;;;;5012314;28;20088;-76
2023/07/26 14:02:35;;;;;;;4.43;2.60;;;;;;;;;;5012364;28;20108;-76
2023/07/26 14:05:02;;;;;;;4.38;2.55;;;;;;;;;;5012312;28;20101;-76
2023/07/26 14:07:28;;;;;;;4.93;2.40;;;;;;;;;;5012525;28;20567;-76
2023/07/26 14:09:54;;;;;;;3.38;1.98;;;;;;;;;;5016348;28;20074;-76
2023/07/26 14:12:20;;;;;;;4.68;2.25;;;;;;;;;;5033263;28;20453;-76
2023/07/26 14:14:46;;;;;;;4.65;1.92;;;;;;;;;;5020082;28;20037;-76
2023/07/26 14:17:12;;;;;;;4.07;2.10;;;;;;;;;;5018121;28;20033;-76
2023/07/26 14:19:38;;;;;;;4.82;2.10;;;;;;;;;;5013535;28;20062;-76
2023/07/26 14:22:04;;;;;;;4.78;2.10;;;;;;;;;;5012734;28;20458;-76
2023/07/26 14:24:31;;;;;;;4.15;2.00;;;;;;;;;;5012431;28;20097;-76
2023/07/26 14:26:57;;;;;;;5.10;2.17;;;;;;;;;;5012264;28;20026;-76
2023/07/26 14:29:23;;;;;;;4.57;2.20;;;;;;;;;;5011000;28;20145;-77
2023/07/26 14:31:52;;;;;;;4.53;2.40;;;;;;;;;;5012664;28;20030;-76
2023/07/26 14:34:19;;;;;;;3.78;2.22;;;;;;;;;;5011988;28;20476;-76
2023/07/26 14:36:45;;;;;;;7.50;2.50;;;;;;;;;;5024455;28;20025;-76
2023/07/26 14:39:11;;;;;;;5.13;2.95;;;;;;;;;;5011984;28;20029;-76
2023/07/26 14:41:37;;;;;;;5.10;2.03;;;;;;;;;;5011909;28;20034;-76